Davie, FL (33331)

4:29 AM EST on February 10, 2016 (GMT -0500)
Weston-Emerald Estates | | Change Station
CLOSE
Current Station
Personal Weather Station
Location: Fort Lauderdale, FL
Elevation: 16 ft
Nearby Weather Stations

Elev 16 ft 26.07 °N, 80.37 °W | Updated 6 seconds ago

Mostly Cloudy
Mostly Cloudy
57.1 °F
Feels Like 57.1 °F
N
1.8
Wind Variable Wind from NNW
Gusts 3.6 mph

Today
High -- | Low -- °F
--% Chance of Precip.
Yesterday
High -- | Low -- °F
Precip. -- in
Pressure 30.12 in
Visibility 10.0 miles
Clouds Overcast 5500 ft
Dew Point 46 °F
Humidity 68%
Rainfall 0.00 in
Snow Depth Not available.
7:00 AM 6:10 PM
Waxing Crescent, 4% visible
METAR KOPF 100853Z AUTO 33011KT 10SM OVC055 16/08 A3012 RMK AO2 SLP200 T01560078 53004
Pressure 30.12 in
Visibility 10.0 miles
Clouds Overcast 5500 ft
Dew Point 46 °F
Humidity 68%
Rainfall 0.00 in
Snow Depth Not available.
7:00 AM 6:10 PM
Waxing Crescent, 4% visible
METAR KOPF 100853Z AUTO 33011KT 10SM OVC055 16/08 A3012 RMK AO2 SLP200 T01560078 53004

10-Day Weather Forecast

Almanac

Astronomy

Feb. 10, 2016 Rise Set
Actual Time
Civil Twilight
Nautical Twilight
Astronomical Twilight
Moon
Length of Visible Light
Length of Day
Tomorrow will be .
, % of the Moon is Illuminated

Today's Extremes

State Highs State Lows

Community

WunderPhotos

Upload Photos

1,891,826 photos uploaded!

WunderBlog® & News

Nearby

Air Quality

  Air Quality AQ Index Pollutant
Not available.

Snow Depth

Station Depth Elevation

Earthquake Activity

City Distance Mag. Time & Date
Minimum magnitude displayed is 2.5.

Coastal Water Temperatures

Place Temperature

Stations

Nearby Weather Stations

Station Location Temp. Windchill Dew Point Humidity Wind Precip. Elev Updated Type
                   

Watches & Warnings

There are currently no watches in effect.